Time;durP1;ratioP1;P1;durP2;ratioP2;P2;SDS_P1;SDS_P2;PMS_P1;PMS_P2;Temp;Humidity;BMP_temperature;BMP_pressure;BME280_temperature;BME280_humidity;BME280_pressure;Samples;Min_cycle;Max_cycle;Signal;HPM_P1;HPM_P2
2021/03/21 00:02:15;;;;;;;18.73;13.65;;;7.90;99.90;;;;;;5009044;28;20069;-85
2021/03/21 00:04:42;;;;;;;18.85;13.88;;;7.90;99.90;;;;;;4995704;28;20050;-85
2021/03/21 00:07:08;;;;;;;19.35;13.60;;;7.90;99.90;;;;;;5010044;28;20050;-85
2021/03/21 00:09:35;;;;;;;19.60;13.55;;;7.90;99.90;;;;;;5010959;28;20045;-85
2021/03/21 00:12:02;;;;;;;17.98;13.23;;;7.90;99.90;;;;;;5027599;28;20056;-84
2021/03/21 00:14:31;;;;;;;20.17;13.65;;;7.90;99.90;;;;;;5009270;28;20041;-84
2021/03/21 00:16:59;;;;;;;19.63;13.18;;;7.90;99.90;;;;;;5010736;28;20049;-85
2021/03/21 00:19:26;;;;;;;19.58;14.48;;;8.00;99.90;;;;;;5008560;28;20045;-85
2021/03/21 00:21:53;;;;;;;18.75;12.00;;;7.90;99.90;;;;;;5009328;28;20384;-86
2021/03/21 00:24:20;;;;;;;18.65;13.07;;;7.90;99.90;;;;;;5007115;28;20480;-85
2021/03/21 00:26:57;;;;;;;20.38;13.43;;;8.00;99.90;;;;;;5006660;28;20537;-85
2021/03/21 00:29:23;;;;;;;21.08;13.32;;;7.90;99.90;;;;;;5011835;28;20042;-85
2021/03/21 00:31:50;;;;;;;16.83;12.80;;;7.90;99.90;;;;;;5010576;28;20057;-85
2021/03/21 00:34:17;;;;;;;21.00;12.48;;;7.90;99.90;;;;;;5012049;28;20057;-85
2021/03/21 00:36:44;;;;;;;17.27;12.23;;;7.90;99.90;;;;;;5014962;28;20048;-85
2021/03/21 00:39:10;;;;;;;21.48;13.00;;;7.90;99.90;;;;;;5014218;28;20038;-85
2021/03/21 00:41:37;;;;;;;16.48;11.90;;;7.90;99.90;;;;;;5007627;28;20412;-85
2021/03/21 00:44:04;;;;;;;18.08;12.15;;;7.90;99.90;;;;;;4996549;28;20050;-86
2021/03/21 00:46:31;;;;;;;18.75;12.32;;;7.90;99.90;;;;;;5012623;28;20046;-85
2021/03/21 00:48:58;;;;;;;22.30;14.00;;;7.90;99.90;;;;;;5011724;28;20054;-86
2021/03/21 00:51:25;;;;;;;15.98;12.55;;;7.90;99.90;;;;;;5006873;28;20484;-85
2021/03/21 00:53:51;;;;;;;21.02;12.25;;;7.90;99.90;;;;;;5011609;28;20050;-86
2021/03/21 00:56:27;;;;;;;20.20;12.75;;;7.90;99.90;;;;;;5009980;28;20053;-85
2021/03/21 00:58:55;;;;;;;18.52;12.98;;;7.90;99.90;;;;;;5004340;28;20057;-85
2021/03/21 01:01:21;;;;;;;20.98;12.90;;;7.90;99.90;;;;;;5012327;28;20049;-85
2021/03/21 01:03:48;;;;;;;22.90;12.48;;;8.00;99.90;;;;;;5011672;28;20050;-85
2021/03/21 01:06:16;;;;;;;18.05;12.65;;;8.00;99.90;;;;;;5007918;28;20523;-85
2021/03/21 01:08:42;;;;;;;19.13;13.05;;;8.00;99.90;;;;;;5011626;28;20053;-85
2021/03/21 01:11:22;;;;;;;17.25;12.07;;;8.00;99.90;;;;;;5000421;28;20451;-85
2021/03/21 01:13:49;;;;;;;17.92;12.90;;;8.00;99.90;;;;;;4994487;28;20076;-85
2021/03/21 01:16:20;;;;;;;18.45;13.27;;;8.00;99.90;;;;;;4991296;28;20048;-85
2021/03/21 01:18:49;;;;;;;19.65;12.70;;;8.00;99.90;;;;;;4988108;28;20081;-85
2021/03/21 01:21:17;;;;;;;19.25;12.38;;;8.00;99.90;;;;;;4981483;28;20050;-85
2021/03/21 01:23:44;;;;;;;15.88;12.20;;;8.00;99.90;;;;;;4983650;28;20050;-85
2021/03/21 01:26:17;;;;;;;20.45;13.57;;;8.00;99.90;;;;;;4994759;28;20058;-85
2021/03/21 01:28:44;;;;;;;16.85;12.30;;;8.00;99.90;;;;;;4994806;28;20053;-85
2021/03/21 01:31:16;;;;;;;15.10;11.40;;;8.00;99.90;;;;;;5000639;28;20056;-85
2021/03/21 01:33:43;;;;;;;20.50;14.02;;;8.00;99.90;;;;;;4992099;28;20046;-85
2021/03/21 01:36:16;;;;;;;18.40;13.55;;;8.00;99.90;;;;;;4985961;28;20169;-86
2021/03/21 01:38:43;;;;;;;18.42;13.27;;;8.00;99.90;;;;;;4988184;28;20054;-85
2021/03/21 01:41:21;;;;;;;17.90;12.88;;;8.00;99.90;;;;;;4992328;28;20054;-86
2021/03/21 01:43:48;;;;;;;16.15;12.75;;;8.00;99.90;;;;;;4991977;28;20058;-85
2021/03/21 01:46:38;;;;;;;15.95;12.75;;;8.00;99.90;;;;;;4993864;28;20100;-85
2021/03/21 01:49:16;;;;;;;19.80;13.40;;;8.00;99.90;;;;;;4988532;28;20116;-85
2021/03/21 01:51:43;;;;;;;17.75;13.15;;;8.00;99.90;;;;;;4994526;28;20464;-86
2021/03/21 01:54:17;;;;;;;19.00;13.45;;;8.00;99.90;;;;;;4991550;28;20057;-86
2021/03/21 01:56:44;;;;;;;18.38;13.60;;;8.00;99.90;;;;;;5013921;28;20475;-85
2021/03/21 01:59:20;;;;;;;20.90;13.50;;;8.00;99.90;;;;;;4996237;28;20053;-85
2021/03/21 02:01:48;;;;;;;19.55;13.73;;;8.00;99.90;;;;;;4992313;28;20062;-85
2021/03/21 02:04:16;;;;;;;18.00;13.43;;;8.00;99.90;;;;;;4990507;28;20042;-85
2021/03/21 02:07:05;;;;;;;20.23;13.52;;;8.00;99.90;;;;;;4986560;28;20085;-85
2021/03/21 02:10:01;;;;;;;19.23;13.45;;;8.10;99.90;;;;;;5007672;28;20431;-85
2021/03/21 02:12:58;;;;;;;17.50;13.40;;;8.10;99.90;;;;;;4994236;28;20058;-85
2021/03/21 02:15:38;;;;;;;20.20;13.95;;;8.10;99.90;;;;;;4992207;28;20069;-85
2021/03/21 02:18:24;;;;;;;21.73;14.15;;;8.10;99.90;;;;;;4992938;28;20053;-85
2021/03/21 02:21:17;;;;;;;16.45;12.68;;;8.10;99.90;;;;;;4987883;28;20077;-85
2021/03/21 02:24:02;;;;;;;20.17;13.43;;;8.10;99.90;;;;;;4992906;28;20046;-85
2021/03/21 02:26:59;;;;;;;19.13;12.88;;;8.10;99.90;;;;;;4997183;28;20511;-85
2021/03/21 02:29:44;;;;;;;19.83;13.05;;;8.10;99.90;;;;;;4984800;28;20084;-85
2021/03/21 02:32:30;;;;;;;15.75;11.73;;;8.10;99.90;;;;;;4991721;28;20058;-85
2021/03/21 02:35:32;;;;;;;18.98;11.98;;;8.20;99.90;;;;;;4980655;28;20085;-85
2021/03/21 02:38:02;;;;;;;14.70;11.23;;;8.20;99.90;;;;;;4982557;28;20193;-86
2021/03/21 02:40:41;;;;;;;16.10;11.02;;;8.20;99.90;;;;;;4996726;28;20053;-85
2021/03/21 02:43:12;;;;;;;16.05;10.95;;;8.20;99.90;;;;;;4997656;28;20064;-85
2021/03/21 02:45:42;;;;;;;16.58;11.13;;;8.20;99.90;;;;;;4997665;28;20042;-85
2021/03/21 02:48:20;;;;;;;16.63;12.43;;;8.30;99.90;;;;;;5013048;28;20467;-85
2021/03/21 02:50:54;;;;;;;13.25;10.73;;;8.30;99.90;;;;;;4997867;28;20054;-85
2021/03/21 02:53:23;;;;;;;17.38;11.85;;;8.30;99.90;;;;;;4997199;28;20049;-86
2021/03/21 02:55:54;;;;;;;16.25;11.32;;;8.30;99.90;;;;;;4986278;28;20050;-85
2021/03/21 02:58:27;;;;;;;16.52;11.55;;;8.30;99.90;;;;;;4993538;28;20128;-86
2021/03/21 03:01:04;;;;;;;16.52;11.90;;;8.30;99.90;;;;;;4999127;28;20038;-86
2021/03/21 03:03:33;;;;;;;15.55;11.75;;;8.40;99.90;;;;;;4995752;28;20052;-85
2021/03/21 03:06:07;;;;;;;19.60;11.50;;;8.40;99.90;;;;;;4998127;28;20095;-86
2021/03/21 03:08:46;;;;;;;15.63;10.90;;;8.40;99.90;;;;;;4996200;28;20088;-85
2021/03/21 03:11:17;;;;;;;16.92;10.75;;;8.40;99.90;;;;;;5009329;28;20045;-86
2021/03/21 03:13:47;;;;;;;14.98;10.40;;;8.40;99.90;;;;;;5015006;28;20053;-86
2021/03/21 03:16:21;;;;;;;13.43;10.63;;;8.40;99.90;;;;;;5016734;28;20057;-85
2021/03/21 03:19:06;;;;;;;20.83;11.90;;;8.40;99.90;;;;;;5031271;28;20057;-85
2021/03/21 03:21:53;;;;;;;16.35;12.02;;;8.40;99.90;;;;;;5031693;28;20041;-85
2021/03/21 03:24:45;;;;;;;16.98;11.55;;;8.40;99.90;;;;;;5015931;28;20463;-85
2021/03/21 03:27:22;;;;;;;18.20;11.32;;;8.40;99.90;;;;;;5016442;28;20042;-85
2021/03/21 03:30:20;;;;;;;16.05;11.70;;;8.40;99.90;;;;;;5016366;28;20061;-85
2021/03/21 03:32:47;;;;;;;21.02;11.57;;;8.40;99.90;;;;;;5011570;28;20045;-86
2021/03/21 03:35:19;;;;;;;16.65;11.48;;;8.40;99.90;;;;;;5016412;28;20045;-85
2021/03/21 03:37:46;;;;;;;19.83;11.40;;;8.40;99.90;;;;;;5016250;28;20399;-85
2021/03/21 03:40:14;;;;;;;17.08;11.05;;;8.40;99.90;;;;;;5016118;28;20049;-85
2021/03/21 03:42:46;;;;;;;13.88;10.93;;;8.40;99.90;;;;;;5012472;28;20072;-86
2021/03/21 03:45:34;;;;;;;16.17;11.48;;;8.40;99.90;;;;;;5009406;28;20050;-86
2021/03/21 03:48:07;;;;;;;20.67;11.87;;;8.50;99.90;;;;;;5016146;28;20099;-86
2021/03/21 03:50:55;;;;;;;17.08;11.80;;;8.40;99.90;;;;;;5015058;28;20045;-85
2021/03/21 03:53:40;;;;;;;17.40;11.90;;;8.40;99.90;;;;;;5009783;28;20056;-86
2021/03/21 03:56:27;;;;;;;17.55;11.40;;;8.40;99.90;;;;;;5026984;28;20132;-85
2021/03/21 03:59:02;;;;;;;17.38;12.32;;;8.40;99.90;;;;;;5012448;28;20080;-85
2021/03/21 04:01:50;;;;;;;17.65;12.73;;;8.40;99.90;;;;;;5014915;28;20065;-85
2021/03/21 04:04:54;;;;;;;19.38;13.02;;;8.40;99.90;;;;;;5012601;28;20056;-85
2021/03/21 04:07:26;;;;;;;18.38;13.07;;;8.40;99.90;;;;;;4999091;28;20104;-85
2021/03/21 04:09:57;;;;;;;20.60;13.15;;;8.40;99.90;;;;;;5009446;28;20049;-86
2021/03/21 04:12:53;;;;;;;19.70;12.90;;;8.40;99.90;;;;;;5033836;28;20049;-85
2021/03/21 04:15:29;;;;;;;19.45;13.25;;;8.40;99.90;;;;;;4915916;29;20053;-85
2021/03/21 04:18:02;;;;;;;19.40;13.18;;;8.40;99.90;;;;;;4914766;29;20052;-85
2021/03/21 04:20:41;;;;;;;24.00;14.75;;;8.40;99.90;;;;;;4931966;29;20052;-85
2021/03/21 04:23:22;;;;;;;20.35;14.25;;;8.40;99.90;;;;;;4916164;29;20051;-86
2021/03/21 04:25:58;;;;;;;21.38;14.32;;;8.40;99.90;;;;;;4916760;29;20096;-85
2021/03/21 04:28:32;;;;;;;19.40;13.02;;;8.40;99.90;;;;;;4914627;29;20478;-86
2021/03/21 04:31:08;;;;;;;18.33;13.45;;;8.40;99.90;;;;;;4928010;29;20068;-85
2021/03/21 04:33:44;;;;;;;20.17;14.13;;;8.40;99.90;;;;;;4911127;29;20048;-85
2021/03/21 04:36:17;;;;;;;26.63;13.52;;;8.40;99.90;;;;;;4922087;29;20141;-85
2021/03/21 04:38:49;;;;;;;16.88;12.63;;;8.40;99.90;;;;;;4903701;29;20047;-85
2021/03/21 04:41:30;;;;;;;20.55;13.00;;;8.40;99.90;;;;;;4918922;29;20056;-85
2021/03/21 04:44:09;;;;;;;20.58;13.35;;;8.40;99.90;;;;;;4913561;29;20066;-85
2021/03/21 04:46:48;;;;;;;20.10;13.13;;;8.40;99.90;;;;;;4927265;29;20458;-85
2021/03/21 04:49:21;;;;;;;16.63;11.93;;;8.40;99.90;;;;;;4916277;29;20056;-85
2021/03/21 04:51:50;;;;;;;15.15;11.82;;;8.40;99.90;;;;;;4960322;28;20499;-85
2021/03/21 04:54:20;;;;;;;16.15;11.88;;;8.40;99.90;;;;;;5012111;28;20049;-85
2021/03/21 04:57:00;;;;;;;16.58;11.77;;;8.40;99.90;;;;;;5010629;28;20054;-85
2021/03/21 04:59:33;;;;;;;14.80;11.48;;;8.40;99.90;;;;;;5012319;28;20050;-84
2021/03/21 05:02:27;;;;;;;16.73;11.82;;;8.40;99.90;;;;;;5004032;28;20053;-85
2021/03/21 05:05:01;;;;;;;14.82;11.27;;;8.40;99.90;;;;;;5013875;28;20052;-85
2021/03/21 05:07:41;;;;;;;19.08;12.15;;;8.40;99.90;;;;;;5010499;28;20064;-85
2021/03/21 05:10:17;;;;;;;17.38;12.18;;;8.40;99.90;;;;;;5009780;28;20057;-85
2021/03/21 05:12:48;;;;;;;18.10;11.68;;;8.40;99.90;;;;;;5013839;28;20048;-85
2021/03/21 05:15:17;;;;;;;15.60;11.68;;;8.40;99.90;;;;;;5014628;28;20383;-85
2021/03/21 05:17:53;;;;;;;16.95;11.05;;;8.40;99.90;;;;;;5012104;28;20059;-85
2021/03/21 05:20:30;;;;;;;12.80;9.68;;;8.30;99.90;;;;;;5016989;28;20087;-86
2021/03/21 05:23:44;;;;;;;12.90;9.48;;;8.40;99.90;;;;;;5004227;28;20045;-86
2021/03/21 05:26:41;;;;;;;13.63;9.73;;;8.40;99.90;;;;;;4931179;29;20501;-85
2021/03/21 05:29:26;;;;;;;11.32;9.18;;;8.40;99.90;;;;;;4930447;29;20120;-85
2021/03/21 05:31:54;;;;;;;12.63;9.52;;;8.40;99.90;;;;;;4932825;29;20071;-85
2021/03/21 05:34:21;;;;;;;9.48;7.78;;;8.40;99.90;;;;;;4946945;29;20051;-85
2021/03/21 05:37:09;;;;;;;11.48;8.55;;;8.40;99.90;;;;;;4930251;29;20499;-86
2021/03/21 05:40:12;;;;;;;11.38;7.43;;;8.40;99.90;;;;;;4923860;29;20060;-85
2021/03/21 05:43:14;;;;;;;8.68;7.18;;;8.40;99.90;;;;;;4929873;29;20075;-85
2021/03/21 05:46:03;;;;;;;8.52;7.28;;;8.40;99.90;;;;;;4944472;29;20130;-86
2021/03/21 05:49:05;;;;;;;17.63;8.25;;;8.40;99.90;;;;;;4931776;29;20059;-85
2021/03/21 05:51:53;;;;;;;8.23;7.13;;;8.40;99.90;;;;;;4931162;29;20059;-85
2021/03/21 05:54:29;;;;;;;10.02;7.20;;;8.50;99.90;;;;;;4935674;29;20564;-86
2021/03/21 05:57:31;;;;;;;7.90;6.72;;;8.40;99.90;;;;;;4927734;29;20116;-86
2021/03/21 06:00:22;;;;;;;8.43;6.85;;;8.50;99.90;;;;;;4957777;28;20045;-86
2021/03/21 06:02:49;;;;;;;8.88;6.90;;;8.50;99.90;;;;;;5009634;28;20057;-86
2021/03/21 06:05:47;;;;;;;7.65;6.72;;;8.50;99.90;;;;;;5018561;28;20604;-85
2021/03/21 06:08:31;;;;;;;7.88;6.90;;;8.50;99.90;;;;;;5023162;28;20049;-86
2021/03/21 06:11:06;;;;;;;11.13;6.95;;;8.50;99.90;;;;;;5001482;28;20050;-86
2021/03/21 06:13:46;;;;;;;10.15;8.20;;;8.50;99.90;;;;;;5031284;28;20060;-86
2021/03/21 06:16:25;;;;;;;8.70;7.78;;;8.50;99.90;;;;;;5032789;28;20135;-85
2021/03/21 06:19:07;;;;;;;;;;;8.50;99.90;;;;;;5014879;28;20475;-86
2021/03/21 06:22:10;;;;;;;9.55;7.40;;;8.50;99.90;;;;;;5031114;28;19921;-85
2021/03/21 06:25:04;;;;;;;13.63;8.27;;;8.50;99.90;;;;;;5018253;28;20041;-85
2021/03/21 06:27:36;;;;;;;10.32;7.72;;;8.50;99.90;;;;;;5014478;28;20053;-85
2021/03/21 06:30:28;;;;;;;10.00;7.65;;;8.50;99.90;;;;;;5023604;28;20387;-86
2021/03/21 06:33:17;;;;;;;10.70;8.10;;;8.40;99.90;;;;;;5008983;28;20552;-85
2021/03/21 06:35:59;;;;;;;10.68;7.75;;;8.50;99.90;;;;;;5015032;28;20124;-86
2021/03/21 06:38:35;;;;;;;9.25;7.28;;;8.50;99.90;;;;;;5007288;28;20483;-85
2021/03/21 06:41:31;;;;;;;9.27;7.55;;;8.50;99.90;;;;;;5034342;28;20137;-86
2021/03/21 06:44:06;;;;;;;10.07;7.45;;;8.50;99.90;;;;;;5016876;28;20050;-86
2021/03/21 06:47:04;;;;;;;10.68;7.57;;;8.50;99.90;;;;;;5010680;28;20046;-86
2021/03/21 06:49:37;;;;;;;10.43;7.78;;;8.50;99.90;;;;;;5032482;28;20056;-86
2021/03/21 06:52:04;;;;;;;8.05;6.68;;;8.50;99.90;;;;;;5032328;28;20076;-86
2021/03/21 06:54:57;;;;;;;9.02;6.93;;;8.50;99.90;;;;;;5018301;28;20136;-86
2021/03/21 06:57:48;;;;;;;11.57;7.85;;;8.50;99.90;;;;;;5011481;28;20065;-85
2021/03/21 07:00:32;;;;;;;11.65;8.00;;;8.60;99.90;;;;;;5027293;28;20142;-86
2021/03/21 07:03:11;;;;;;;10.23;7.47;;;8.60;99.90;;;;;;5013194;28;20558;-85
2021/03/21 07:06:17;;;;;;;9.98;7.63;;;8.60;99.90;;;;;;5032672;28;20046;-86
2021/03/21 07:09:09;;;;;;;9.18;7.65;;;8.60;99.90;;;;;;4950259;28;20044;-86
2021/03/21 07:11:44;;;;;;;9.55;7.85;;;8.60;99.90;;;;;;4895419;29;20059;-85
2021/03/21 07:14:47;;;;;;;10.35;7.70;;;8.60;99.90;;;;;;4894322;29;20057;-86
2021/03/21 07:17:32;;;;;;;9.13;7.18;;;8.60;99.90;;;;;;4903318;29;20076;-86
2021/03/21 07:20:11;;;;;;;9.43;7.38;;;8.60;99.90;;;;;;4910840;29;20048;-85
2021/03/21 07:23:20;;;;;;;10.23;7.65;;;8.60;99.90;;;;;;4901885;29;20045;-85
2021/03/21 07:25:56;;;;;;;9.43;7.55;;;8.60;99.90;;;;;;4905918;29;20104;-85
2021/03/21 07:28:49;;;;;;;10.52;7.75;;;8.60;99.90;;;;;;4914785;29;20115;-85
2021/03/21 07:31:43;;;;;;;10.45;7.13;;;8.60;99.90;;;;;;4904112;29;20059;-85
2021/03/21 07:34:35;;;;;;;10.88;7.25;;;8.70;99.90;;;;;;4909431;29;20127;-86
2021/03/21 07:37:17;;;;;;;7.15;6.45;;;8.70;99.90;;;;;;4882271;29;20071;-85
2021/03/21 07:40:15;;;;;;;9.68;7.13;;;8.70;99.90;;;;;;4910622;29;20124;-86
2021/03/21 07:43:00;;;;;;;8.00;7.00;;;8.70;99.90;;;;;;4892449;29;20060;-85
2021/03/21 07:45:49;;;;;;;7.90;7.10;;;8.70;99.90;;;;;;4928072;28;20516;-85
2021/03/21 07:48:35;;;;;;;10.07;7.50;;;8.80;99.90;;;;;;4868322;29;20067;-86
2021/03/21 07:51:16;;;;;;;8.10;6.57;;;8.80;99.90;;;;;;4906863;29;20147;-85
2021/03/21 07:53:59;;;;;;;10.65;7.05;;;8.90;99.90;;;;;;4898891;29;20072;-85
2021/03/21 07:56:49;;;;;;;9.82;7.93;;;8.90;99.90;;;;;;4901154;29;20055;-86
2021/03/21 07:59:22;;;;;;;10.35;7.65;;;8.90;99.90;;;;;;4902625;29;20475;-87
2021/03/21 08:01:48;;;;;;;9.88;7.03;;;8.90;99.90;;;;;;4900499;29;20702;-85
2021/03/21 08:04:18;;;;;;;10.27;6.45;;;9.00;99.90;;;;;;4916328;29;20060;-85
2021/03/21 08:06:50;;;;;;;10.32;6.93;;;9.00;99.90;;;;;;4917580;29;20066;-91
2021/03/21 08:09:28;;;;;;;8.85;6.70;;;9.00;99.90;;;;;;4899427;29;20048;-91
2021/03/21 08:12:21;;;;;;;9.40;7.63;;;9.10;99.90;;;;;;4893966;29;20052;-91
2021/03/21 08:14:57;;;;;;;8.60;6.72;;;9.10;99.90;;;;;;4900819;29;20111;-91
2021/03/21 08:17:42;;;;;;;8.77;7.20;;;9.20;99.90;;;;;;4899852;29;20047;-91
2021/03/21 08:20:27;;;;;;;9.05;7.35;;;9.20;99.90;;;;;;4902392;29;20044;-91
2021/03/21 08:23:26;;;;;;;7.85;7.15;;;9.20;99.90;;;;;;4892889;29;20108;-90
2021/03/21 08:25:58;;;;;;;9.02;7.53;;;9.20;99.90;;;;;;4981672;28;20045;-90
2021/03/21 08:28:38;;;;;;;9.50;7.50;;;9.20;99.90;;;;;;4997165;28;20053;-91
2021/03/21 08:31:11;;;;;;;8.57;7.70;;;9.20;99.90;;;;;;4993627;28;20053;-90
2021/03/21 08:33:43;;;;;;;10.27;7.60;;;9.20;99.90;;;;;;4997311;28;20065;-90
2021/03/21 08:36:19;;;;;;;9.40;7.40;;;9.30;99.90;;;;;;4988938;28;20042;-90
2021/03/21 08:38:56;;;;;;;8.20;7.28;;;9.30;99.90;;;;;;5000765;28;20118;-90
2021/03/21 08:41:27;;;;;;;12.70;7.43;;;9.30;99.90;;;;;;4997898;28;20044;-91
2021/03/21 08:44:00;;;;;;;11.20;7.50;;;9.30;99.90;;;;;;4994842;28;20053;-90
2021/03/21 08:46:30;;;;;;;9.20;7.18;;;9.40;99.90;;;;;;4994754;28;20053;-90
2021/03/21 08:49:20;;;;;;;7.47;6.78;;;9.40;99.90;;;;;;4994809;28;20054;-90
2021/03/21 08:51:47;;;;;;;9.40;7.03;;;9.40;99.90;;;;;;4995052;28;20141;-90
2021/03/21 08:54:28;;;;;;;8.68;6.65;;;9.40;99.90;;;;;;4987880;28;20069;-90
2021/03/21 08:56:58;;;;;;;9.60;6.47;;;9.50;99.90;;;;;;4987674;28;20387;-90
2021/03/21 08:59:44;;;;;;;10.45;7.03;;;9.50;99.90;;;;;;4995859;28;20046;-90
2021/03/21 09:02:18;;;;;;;9.80;7.50;;;9.50;99.90;;;;;;4990087;28;20042;-90
2021/03/21 09:05:07;;;;;;;7.78;6.30;;;9.50;99.90;;;;;;4994861;28;20281;-93
2021/03/21 09:07:37;;;;;;;9.18;6.80;;;9.50;99.90;;;;;;4996144;28;20046;-90
2021/03/21 09:10:11;;;;;;;9.02;5.80;;;9.50;99.90;;;;;;4982677;28;20089;-90
2021/03/21 09:12:45;;;;;;;8.55;5.93;;;9.50;99.90;;;;;;5012578;28;20403;-90
2021/03/21 09:15:22;;;;;;;8.43;5.63;;;9.50;99.90;;;;;;5010916;28;20045;-90
2021/03/21 09:18:02;;;;;;;7.30;5.68;;;9.50;99.90;;;;;;5012450;28;20131;-90
2021/03/21 09:20:31;;;;;;;5.65;5.10;;;9.50;99.90;;;;;;5013555;28;20053;-90
2021/03/21 09:23:19;;;;;;;5.68;5.07;;;9.60;99.90;;;;;;5011675;28;20055;-90
2021/03/21 09:25:51;;;;;;;9.52;5.28;;;9.60;99.90;;;;;;5019977;28;20460;-89
2021/03/21 09:28:20;;;;;;;6.82;4.93;;;9.70;99.90;;;;;;5008992;28;20042;-89
2021/03/21 09:30:48;;;;;;;5.25;4.75;;;9.70;99.90;;;;;;5009751;28;20042;-89
2021/03/21 09:33:31;;;;;;;6.47;4.50;;;9.70;99.90;;;;;;5012094;28;20094;-89
2021/03/21 09:36:28;;;;;;;7.20;4.75;;;9.70;99.90;;;;;;5011427;28;20081;-89
2021/03/21 09:39:14;;;;;;;6.32;4.07;;;9.80;99.90;;;;;;5008087;28;20046;-91
2021/03/21 09:41:43;;;;;;;11.18;3.92;;;9.90;99.90;;;;;;5012369;28;20053;-92
2021/03/21 09:44:37;;;;;;;7.22;4.25;;;9.80;99.90;;;;;;5004608;28;20038;-90
2021/03/21 09:47:28;;;;;;;6.00;4.07;;;9.90;99.90;;;;;;5009241;28;20045;-90
2021/03/21 09:50:22;;;;;;;4.65;3.78;;;9.90;99.90;;;;;;4995254;28;20057;-90
2021/03/21 09:53:01;;;;;;;6.85;4.35;;;9.90;99.90;;;;;;5003210;28;20369;-90
2021/03/21 09:55:42;;;;;;;4.55;3.60;;;9.90;99.90;;;;;;5011054;28;20045;-90
2021/03/21 09:58:31;;;;;;;6.13;4.25;;;9.90;99.90;;;;;;5008566;28;20054;-89
2021/03/21 10:01:37;;;;;;;5.00;4.20;;;10.00;99.90;;;;;;5024787;28;20152;-90
2021/03/21 10:04:52;;;;;;;5.53;3.63;;;10.00;99.90;;;;;;5017441;28;20126;-89
2021/03/21 10:07:50;;;;;;;5.55;3.97;;;10.00;99.90;;;;;;5014566;28;20508;-91
2021/03/21 10:10:41;;;;;;;8.07;4.27;;;10.10;99.90;;;;;;4956265;28;20481;-89
2021/03/21 10:13:11;;;;;;;7.15;4.97;;;10.10;99.90;;;;;;4972109;28;20055;-91
2021/03/21 10:16:16;;;;;;;6.43;4.43;;;10.10;99.90;;;;;;4961460;28;20050;-90
2021/03/21 10:18:45;;;;;;;5.43;4.30;;;10.20;99.90;;;;;;4955437;28;20051;-91
2021/03/21 10:21:30;;;;;;;7.40;4.47;;;10.20;99.90;;;;;;4956173;28;20043;-91
2021/03/21 10:24:00;;;;;;;6.85;4.35;;;10.20;99.90;;;;;;4955849;28;20050;-90
2021/03/21 10:26:33;;;;;;;7.88;4.65;;;10.20;99.90;;;;;;4953526;28;20047;-91
2021/03/21 10:29:22;;;;;;;7.82;4.38;;;10.20;99.90;;;;;;4958909;28;20073;-91
2021/03/21 10:32:29;;;;;;;5.90;4.40;;;10.20;99.90;;;;;;4957760;28;20054;-90
2021/03/21 10:35:00;;;;;;;6.72;4.22;;;10.20;99.90;;;;;;4980609;28;20074;-91
2021/03/21 10:37:43;;;;;;;5.35;4.28;;;10.20;99.90;;;;;;4994686;28;20060;-90
2021/03/21 10:40:25;;;;;;;7.75;4.43;;;10.20;99.90;;;;;;4983465;28;20051;-91
2021/03/21 10:42:59;;;;;;;6.35;4.72;;;10.20;99.90;;;;;;4971685;28;20051;-91
2021/03/21 10:45:34;;;;;;;6.28;4.63;;;10.20;99.90;;;;;;4970382;28;20042;-91
2021/03/21 10:48:30;;;;;;;9.90;4.32;;;10.30;99.90;;;;;;5008742;28;20082;-91
2021/03/21 10:51:12;;;;;;;4.78;3.78;;;10.30;99.90;;;;;;5002863;28;20053;-91
2021/03/21 10:54:27;;;;;;;7.60;4.47;;;10.30;99.90;;;;;;5012326;28;20105;-91
2021/03/21 10:57:41;;;;;;;11.32;5.35;;;10.40;99.90;;;;;;5007563;28;20571;-91
2021/03/21 11:00:32;;;;;;;9.35;6.35;;;10.40;99.90;;;;;;4950953;29;20098;-91
2021/03/21 11:03:00;;;;;;;10.23;5.32;;;10.40;99.90;;;;;;4952566;29;20047;-92
2021/03/21 11:05:30;;;;;;;8.55;5.40;;;10.50;99.90;;;;;;4964105;29;20058;-91
2021/03/21 11:08:09;;;;;;;7.13;5.28;;;10.50;99.90;;;;;;4946802;28;20244;-91
2021/03/21 11:10:47;;;;;;;8.18;5.75;;;10.60;99.90;;;;;;4969340;28;20467;-92
2021/03/21 11:13:30;;;;;;;8.75;5.95;;;10.60;99.90;;;;;;4961483;29;20047;-92
2021/03/21 11:15:59;;;;;;;9.82;6.38;;;10.70;99.90;;;;;;4940511;29;20508;-91
2021/03/21 11:18:33;;;;;;;7.53;6.45;;;10.80;99.90;;;;;;4938046;28;20133;-91
2021/03/21 11:21:17;;;;;;;8.32;6.55;;;10.80;99.90;;;;;;4937305;28;20058;-91
2021/03/21 11:24:03;;;;;;;12.13;7.28;;;10.90;99.90;;;;;;4955883;28;20059;-91
2021/03/21 11:26:37;;;;;;;8.27;7.25;;;11.00;99.90;;;;;;4940623;29;20081;-91
2021/03/21 11:29:05;;;;;;;10.23;7.50;;;11.10;99.90;;;;;;4937299;28;20102;-90
2021/03/21 11:31:43;;;;;;;8.88;7.05;;;11.10;99.90;;;;;;4963698;28;20046;-90
2021/03/21 11:34:32;;;;;;;9.10;7.28;;;11.20;99.90;;;;;;4989734;28;20764;-91
2021/03/21 11:37:05;;;;;;;12.27;7.65;;;11.30;99.90;;;;;;4996712;28;20100;-91
2021/03/21 11:39:35;;;;;;;11.15;7.53;;;11.30;99.90;;;;;;4997718;28;20077;-92
2021/03/21 11:42:33;;;;;;;10.18;6.97;;;11.30;99.90;;;;;;5017447;28;20539;-91
2021/03/21 11:45:20;;;;;;;;;;;11.40;99.90;;;;;;5007394;28;20054;-92
2021/03/21 11:48:15;;;;;;;9.23;7.65;;;11.50;99.90;;;;;;5008367;28;19929;-89
2021/03/21 11:50:46;;;;;;;9.38;7.95;;;11.50;99.90;;;;;;5017708;28;20046;-91
2021/03/21 11:53:23;;;;;;;11.95;8.45;;;11.50;99.90;;;;;;5010026;28;20050;-91
2021/03/21 11:56:15;;;;;;;14.32;8.15;;;11.40;99.90;;;;;;5007445;28;20050;-91
2021/03/21 11:58:57;;;;;;;13.43;8.13;;;11.40;99.90;;;;;;5020192;28;20056;-91
2021/03/21 12:01:51;;;;;;;10.27;8.27;;;11.40;99.90;;;;;;5005428;28;20068;-90
2021/03/21 12:04:25;;;;;;;10.70;7.90;;;11.30;99.90;;;;;;5004175;28;20133;-91
2021/03/21 12:06:59;;;;;;;9.40;7.68;;;11.30;99.90;;;;;;5014375;28;20053;-92
2021/03/21 12:09:47;;;;;;;11.65;8.82;;;11.30;99.90;;;;;;5000733;28;20180;-89
2021/03/21 12:12:39;;;;;;;10.18;7.80;;;11.30;99.90;;;;;;4995329;28;20048;-87
2021/03/21 12:15:13;;;;;;;10.80;7.72;;;11.20;99.90;;;;;;4996558;28;20046;-87
2021/03/21 12:17:42;;;;;;;11.10;8.02;;;11.20;99.90;;;;;;4995374;28;20045;-87
2021/03/21 12:20:38;;;;;;;8.80;7.70;;;11.10;99.90;;;;;;4993904;28;20454;-86
2021/03/21 12:23:06;;;;;;;10.30;7.93;;;11.10;99.90;;;;;;4997684;28;20054;-89
2021/03/21 12:25:36;;;;;;;11.80;8.63;;;11.00;99.90;;;;;;4991802;28;20061;-85
2021/03/21 12:28:22;;;;;;;10.95;7.90;;;11.00;99.90;;;;;;5012739;28;20073;-87
2021/03/21 12:30:59;;;;;;;9.75;8.00;;;11.00;99.90;;;;;;4992751;28;20050;-87
2021/03/21 12:33:34;;;;;;;11.27;8.57;;;10.90;99.90;;;;;;4995693;28;20504;-86
2021/03/21 12:36:13;;;;;;;10.07;8.32;;;10.90;99.90;;;;;;4996063;28;20053;-87
2021/03/21 12:38:47;;;;;;;10.20;7.88;;;10.90;99.90;;;;;;5011757;28;20058;-87
2021/03/21 12:41:40;;;;;;;10.65;7.82;;;10.90;99.90;;;;;;5008833;28;20052;-87
2021/03/21 12:44:17;;;;;;;11.40;8.10;;;10.90;99.90;;;;;;4992239;28;20046;-86
2021/03/21 12:46:45;;;;;;;11.75;8.70;;;10.90;99.90;;;;;;5017792;28;20061;-87
2021/03/21 12:49:43;;;;;;;14.98;8.48;;;10.90;99.90;;;;;;5014362;28;20045;-84
2021/03/21 12:52:36;;;;;;;12.52;8.77;;;11.00;99.90;;;;;;4993669;28;20093;-88
2021/03/21 12:55:05;;;;;;;11.65;8.57;;;11.10;99.90;;;;;;5003026;28;20076;-89
2021/03/21 12:57:33;;;;;;;13.88;8.77;;;11.20;99.90;;;;;;5014115;28;20042;-89
2021/03/21 13:00:05;;;;;;;11.18;8.27;;;11.20;99.90;;;;;;5001859;28;20080;-88
2021/03/21 13:02:34;;;;;;;12.10;8.20;;;11.30;99.90;;;;;;4973373;28;20111;-87
2021/03/21 13:05:08;;;;;;;13.20;8.48;;;11.40;99.90;;;;;;4992841;28;20104;-88
2021/03/21 13:07:35;;;;;;;13.20;8.73;;;11.40;99.90;;;;;;4991170;28;20136;-85
2021/03/21 13:10:03;;;;;;;16.75;11.13;;;11.40;99.90;;;;;;4999934;28;20058;-83
2021/03/21 13:12:30;;;;;;;42.85;15.43;;;11.40;99.90;;;;;;5011251;28;20091;-85
2021/03/21 13:15:00;;;;;;;14.48;9.85;;;11.30;99.90;;;;;;5019628;28;20045;-85
2021/03/21 13:17:26;;;;;;;35.33;17.88;;;11.30;99.90;;;;;;5012382;28;20436;-85
2021/03/21 13:19:53;;;;;;;25.67;14.13;;;11.30;99.90;;;;;;5012963;28;20506;-84
2021/03/21 13:22:20;;;;;;;16.83;11.07;;;11.40;99.90;;;;;;5016293;28;20064;-85
2021/03/21 13:24:48;;;;;;;10.48;8.93;;;11.40;99.90;;;;;;5013497;28;20091;-87
2021/03/21 13:27:15;;;;;;;8.90;7.78;;;11.40;99.90;;;;;;5012235;28;20061;-85
2021/03/21 13:29:42;;;;;;;11.85;9.13;;;11.50;99.90;;;;;;5019831;28;20519;-84
2021/03/21 13:32:12;;;;;;;12.13;8.60;;;11.50;99.90;;;;;;5030642;28;20048;-85
2021/03/21 13:34:41;;;;;;;9.13;7.97;;;11.50;99.90;;;;;;5030716;28;20050;-84
2021/03/21 13:37:23;;;;;;;11.93;8.20;;;11.50;99.90;;;;;;5045364;28;20110;-84
2021/03/21 13:39:51;;;;;;;8.85;7.45;;;11.40;99.90;;;;;;5041025;28;20059;-84
2021/03/21 13:42:21;;;;;;;9.45;7.38;;;11.40;99.90;;;;;;5033335;28;20054;-84
2021/03/21 13:44:49;;;;;;;8.55;7.35;;;11.40;99.90;;;;;;5021090;28;20045;-85